Time;durP1;ratioP1;P1;durP2;ratioP2;P2;SDS_P1;SDS_P2;PMS_P1;PMS_P2;Temp;Humidity;BMP_temperature;BMP_pressure;BME280_temperature;BME280_humidity;BME280_pressure;Samples;Min_cycle;Max_cycle;Signal;HPM_P1;HPM_P2
2024/02/14 00:00:24;;;;;;;2.70;1.90;;;;;;;5.99;81.64;99270.97;4915748;29;42924;-86
2024/02/14 00:02:52;;;;;;;2.33;1.93;;;;;;;6.12;81.75;99292.41;4916255;29;42484;-87
2024/02/14 00:05:19;;;;;;;2.23;2.03;;;;;;;6.07;81.41;99271.53;4914763;29;40631;-87
2024/02/14 00:07:47;;;;;;;2.77;2.00;;;;;;;6.15;82.11;99278.28;4928404;29;41713;-86
2024/02/14 00:10:16;;;;;;;4.30;2.20;;;;;;;6.06;82.29;99254.03;4896882;29;42665;-87
2024/02/14 00:12:44;;;;;;;3.20;1.70;;;;;;;6.31;81.91;99289.91;4909997;29;42450;-86
2024/02/14 00:15:12;;;;;;;3.30;2.03;;;;;;;6.23;81.57;99277.06;4894709;29;40208;-86
2024/02/14 00:17:39;;;;;;;2.87;1.80;;;;;;;6.26;82.00;99270.84;4910732;29;41578;-89
2024/02/14 00:20:10;;;;;;;1.93;1.80;;;;;;;6.23;81.98;99271.81;4897922;29;41832;-89
2024/02/14 00:22:49;;;;;;;4.00;2.00;;;;;;;6.24;81.65;99277.94;4900776;29;41330;-88
2024/02/14 00:25:19;;;;;;;3.37;2.20;;;;;;;6.21;81.40;99272.78;4914599;29;39262;-87
2024/02/14 00:27:49;;;;;;;2.30;2.10;;;;;;;6.21;81.41;99273.66;4898926;29;42158;-87
2024/02/14 00:30:16;;;;;;;5.00;2.30;;;;;;;6.28;82.07;99287.44;4914244;29;44680;-86
2024/02/14 00:33:03;;;;;;;3.23;2.27;;;;;;;6.28;82.02;99284.81;4927710;29;42192;-86
2024/02/14 00:35:31;;;;;;;2.50;2.30;;;;;;;6.18;81.97;99272.94;4898421;29;40308;-88
2024/02/14 00:37:58;;;;;;;2.70;2.07;;;;;;;6.16;81.70;99280.00;4898438;29;43408;-88
2024/02/14 00:40:27;;;;;;;1.80;1.70;;;;;;;6.12;81.72;99269.59;4898648;29;44748;-86
2024/02/14 00:42:55;;;;;;;2.07;1.90;;;;;;;6.19;81.87;99293.03;4899391;29;41426;-87
2024/02/14 00:45:22;;;;;;;3.40;1.87;;;;;;;6.12;81.99;99281.88;4915574;29;38969;-87
2024/02/14 00:47:50;;;;;;;3.57;1.90;;;;;;;6.06;82.44;99276.84;4899980;29;42661;-89
2024/02/14 00:50:17;;;;;;;3.63;1.97;;;;;;;6.04;82.90;99276.94;4899537;29;41806;-87
2024/02/14 00:52:45;;;;;;;2.27;2.07;;;;;;;6.05;82.43;99278.66;4899759;29;41462;-86
2024/02/14 00:55:12;;;;;;;1.80;1.70;;;;;;;6.00;82.65;99280.56;4915177;29;39752;-88
2024/02/14 00:57:42;;;;;;;4.17;2.10;;;;;;;5.90;82.60;99276.59;4915688;29;40892;-86
2024/02/14 01:00:10;;;;;;;2.53;1.90;;;;;;;5.94;83.14;99285.19;4915365;29;43754;-86
2024/02/14 01:02:39;;;;;;;2.63;2.07;;;;;;;5.84;83.03;99263.63;4899549;29;41130;-87
2024/02/14 01:05:07;;;;;;;3.17;2.00;;;;;;;5.87;82.91;99268.78;4898343;29;39144;-87
2024/02/14 01:07:34;;;;;;;2.43;2.00;;;;;;;5.93;83.15;99273.00;4914230;29;41876;-87
2024/02/14 01:10:02;;;;;;;2.43;2.23;;;;;;;6.06;82.68;99285.59;4912796;29;42790;-86
2024/02/14 01:12:32;;;;;;;3.30;2.03;;;;;;;6.11;82.86;99270.50;4913739;29;41222;-88
2024/02/14 01:15:01;;;;;;;2.40;2.17;;;;;;;6.19;82.46;99270.22;4914322;29;39684;-88
2024/02/14 01:17:29;;;;;;;2.10;1.90;;;;;;;6.26;81.95;99276.13;4914260;29;41154;-88
2024/02/14 01:19:58;;;;;;;3.37;1.73;;;;;;;6.29;81.72;99268.09;4897947;29;41667;-89
2024/02/14 01:22:25;;;;;;;2.67;1.60;;;;;;;6.47;81.54;99289.28;4898328;29;41310;-88
2024/02/14 01:25:06;;;;;;;1.80;1.60;;;;;;;6.53;81.11;99296.09;4913661;29;40893;-87
2024/02/14 01:27:33;;;;;;;2.13;1.80;;;;;;;6.52;80.96;99283.84;4913811;29;41654;-86
2024/02/14 01:30:02;;;;;;;1.80;1.60;;;;;;;6.50;81.06;99280.41;4898017;29;43177;-87
2024/02/14 01:32:32;;;;;;;1.63;1.30;;;;;;;6.55;80.85;99267.97;4898533;29;42395;-86
2024/02/14 01:35:00;;;;;;;3.60;1.80;;;;;;;6.61;80.70;99277.38;4897485;29;39039;-87
2024/02/14 01:37:29;;;;;;;1.67;1.50;;;;;;;6.71;80.63;99290.09;4913635;29;42210;-87
2024/02/14 01:39:56;;;;;;;1.70;1.50;;;;;;;6.68;80.68;99278.81;4915364;29;42912;-87
2024/02/14 01:42:24;;;;;;;1.87;1.47;;;;;;;6.52;80.49;99241.75;4917301;29;41630;-88
2024/02/14 01:44:51;;;;;;;1.57;1.47;;;;;;;6.71;80.16;99269.03;4917911;29;41373;-87
2024/02/14 01:47:20;;;;;;;1.40;1.30;;;;;;;6.73;79.84;99264.56;4918009;29;42356;-88
2024/02/14 01:49:49;;;;;;;1.63;1.43;;;;;;;6.85;79.96;99285.13;4917568;29;43692;-85
2024/02/14 01:52:16;;;;;;;2.00;1.40;;;;;;;6.88;79.98;99280.66;4918259;29;42341;-88
2024/02/14 09:20:38;;;;;;;2.07;1.40;;;;;;;9.78;89.38;99305.84;5121251;27;20576;-87
2024/02/14 09:23:06;;;;;;;2.60;1.20;;;;;;;10.38;86.19;99323.81;5070084;28;38760;-88
2024/02/14 09:25:33;;;;;;;1.70;1.60;;;;;;;10.82;82.27;99316.97;5070771;28;42252;-88
2024/02/14 09:28:01;;;;;;;3.43;1.57;;;;;;;11.16;79.68;99322.94;5070195;28;42257;-87
2024/02/14 09:30:30;;;;;;;2.10;1.40;;;;;;;11.33;77.17;99329.06;5070636;28;40981;-88
2024/02/14 09:32:58;;;;;;;3.83;1.93;;;;;;;11.49;76.19;99324.59;5070084;28;39095;-87
2024/02/14 09:35:26;;;;;;;2.90;1.77;;;;;;;11.63;75.31;99331.69;5070083;28;43120;-87
2024/02/14 09:37:55;;;;;;;3.63;1.57;;;;;;;11.71;75.43;99321.50;5070388;28;42142;-86
2024/02/14 09:40:23;;;;;;;1.83;1.40;;;;;;;11.76;74.68;99301.72;5069872;28;41106;-85
2024/02/14 09:42:55;;;;;;;2.00;1.57;;;;;;;12.03;73.84;99320.44;5089074;28;39870;-87
2024/02/14 09:45:25;;;;;;;2.30;1.60;;;;;;;12.09;72.89;99321.88;5071564;28;41863;-88
2024/02/14 09:47:53;;;;;;;2.13;1.73;;;;;;;12.20;71.71;99332.69;5070998;28;41676;-86
2024/02/14 09:50:21;;;;;;;2.03;1.60;;;;;;;12.40;71.43;99347.38;5070736;28;41082;-87
2024/02/14 09:52:49;;;;;;;2.57;1.33;;;;;;;12.49;70.64;99345.00;5088381;28;40969;-90
2024/02/14 09:55:19;;;;;;;2.57;1.43;;;;;;;12.44;70.26;99336.47;5070865;28;41166;-86
2024/02/14 09:57:49;;;;;;;3.60;1.53;;;;;;;12.62;69.57;99344.22;5071111;28;42088;-88
2024/02/14 10:00:17;;;;;;;3.73;1.73;;;;;;;12.73;69.41;99339.97;5070520;28;41387;-87
2024/02/14 10:02:45;;;;;;;4.10;1.60;;;;;;;12.88;68.52;99346.94;5070838;28;40492;-85
2024/02/14 10:05:12;;;;;;;3.47;1.57;;;;;;;12.89;68.55;99326.53;5070813;28;40966;-88
2024/02/14 10:07:44;;;;;;;3.57;1.60;;;;;;;13.04;68.28;99340.66;5070929;28;41765;-88
2024/02/14 10:10:13;;;;;;;3.60;1.80;;;;;;;13.16;68.17;99350.53;5070499;28;41228;-87
2024/02/14 10:12:43;;;;;;;1.87;1.50;;;;;;;13.09;67.73;99344.72;5085733;28;40081;-87
2024/02/14 10:15:10;;;;;;;2.77;1.63;;;;;;;13.21;67.75;99361.72;5069704;28;41650;-89
2024/02/14 10:17:40;;;;;;;3.50;1.60;;;;;;;13.21;67.86;99370.56;5069498;28;41761;-87
2024/02/14 10:20:09;;;;;;;2.00;1.60;;;;;;;13.23;68.04;99362.44;5068766;28;42416;-87
2024/02/14 10:22:38;;;;;;;2.77;1.30;;;;;;;13.32;68.25;99361.88;5069633;28;38878;-87
2024/02/14 10:25:08;;;;;;;3.20;1.60;;;;;;;13.39;68.11;99351.66;5069086;28;40726;-89
2024/02/14 10:27:37;;;;;;;2.17;1.43;;;;;;;13.59;67.24;99364.53;5069424;28;43170;-88
2024/02/14 10:30:09;;;;;;;1.93;1.40;;;;;;;13.80;66.81;99347.09;5065803;28;41042;-88
2024/02/14 10:32:37;;;;;;;2.43;1.37;;;;;;;14.08;65.71;99366.53;5056742;28;39731;-87
2024/02/14 10:35:08;;;;;;;2.57;1.50;;;;;;;13.99;65.38;99338.69;5055664;28;40845;-90
2024/02/14 10:37:36;;;;;;;2.57;2.00;;;;;;;13.82;65.13;99323.91;5055857;28;44989;-90
2024/02/14 10:40:05;;;;;;;2.43;1.50;;;;;;;13.98;65.02;99356.47;5055326;28;41430;-88
2024/02/14 10:42:32;;;;;;;1.80;1.27;;;;;;;14.06;65.33;99371.94;5056485;28;38563;-89
2024/02/14 10:45:00;;;;;;;1.77;1.47;;;;;;;14.01;65.43;99376.72;5056590;28;40272;-90
2024/02/14 10:47:35;;;;;;;3.33;1.73;;;;;;;13.94;65.87;99372.78;5056646;28;41819;-89
2024/02/14 10:50:05;;;;;;;2.87;1.53;;;;;;;13.91;66.23;99359.69;5056687;28;42417;-89
2024/02/14 10:52:34;;;;;;;2.17;1.43;;;;;;;13.91;66.58;99360.53;5057396;28;39078;-89
2024/02/14 10:55:04;;;;;;;1.60;1.47;;;;;;;13.82;66.64;99347.84;5056507;28;41710;-88
2024/02/14 10:57:32;;;;;;;1.47;1.37;;;;;;;13.76;66.60;99340.25;5056933;28;42801;-88
2024/02/14 11:00:02;;;;;;;3.67;1.70;;;;;;;13.81;67.06;99348.81;5056580;28;41158;-86
2024/02/14 11:02:33;;;;;;;3.30;2.10;;;;;;;13.93;66.84;99352.44;5056322;28;39202;-88
2024/02/14 11:05:02;;;;;;;1.83;1.43;;;;;;;13.89;66.59;99335.81;5054319;28;41734;-87
2024/02/14 11:07:30;;;;;;;2.33;1.50;;;;;;;14.05;67.09;99351.59;5055281;28;41535;-87
2024/02/14 11:10:08;;;;;;;3.63;1.23;;;;;;;14.11;66.41;99360.97;5055375;28;42606;-88
2024/02/14 11:12:38;;;;;;;1.97;1.70;;;;;;;14.02;66.86;99344.66;5055334;28;38613;-87
2024/02/14 11:15:18;;;;;;;1.50;1.40;;;;;;;14.16;67.38;99342.88;5054885;28;41398;-89
2024/02/14 11:17:48;;;;;;;2.33;1.30;;;;;;;14.43;66.91;99340.97;5055216;28;43557;-88
2024/02/14 11:20:17;;;;;;;2.60;1.70;;;;;;;15.05;65.57;99367.63;5071764;28;41941;-88
2024/02/14 11:22:55;;;;;;;1.90;1.20;;;;;;;15.42;64.20;99374.63;5055140;28;40377;-87
2024/02/14 11:25:24;;;;;;;4.30;1.40;;;;;;;15.44;63.89;99364.69;5054995;28;41482;-90
2024/02/14 11:27:52;;;;;;;3.40;1.43;;;;;;;15.40;63.57;99373.88;5055143;28;41648;-92
2024/02/14 11:30:35;;;;;;;4.83;1.30;;;;;;;15.19;63.61;99383.47;5055494;28;41421;-88
2024/02/14 11:33:27;;;;;;;2.20;1.53;;;;;;;14.99;64.45;99382.22;5062751;28;40828;-87
2024/02/14 11:35:56;;;;;;;2.20;1.47;;;;;;;14.79;65.00;99368.63;5073147;28;42349;-88
2024/02/14 11:38:25;;;;;;;2.03;1.30;;;;;;;14.65;65.86;99364.28;5062815;28;41693;-90
2024/02/14 11:40:56;;;;;;;2.80;1.37;;;;;;;14.70;66.26;99367.50;5062968;28;42203;-89
2024/02/14 11:43:24;;;;;;;2.37;1.37;;;;;;;14.63;66.84;99359.06;5062271;28;39056;-88
2024/02/14 11:45:52;;;;;;;2.23;1.23;;;;;;;14.62;66.52;99344.03;5061942;28;42475;-88
2024/02/14 11:48:23;;;;;;;2.00;1.43;;;;;;;14.51;66.73;99330.63;5055367;28;42317;-89
2024/02/14 11:50:55;;;;;;;1.67;1.10;;;;;;;14.68;67.15;99370.25;5056046;28;41187;-89
2024/02/14 11:53:23;;;;;;;1.77;1.27;;;;;;;14.40;67.57;99338.53;5055485;28;39817;-89
2024/02/14 11:55:51;;;;;;;2.17;1.20;;;;;;;14.41;67.67;99350.03;5072682;28;42715;-89
2024/02/14 11:58:20;;;;;;;1.70;1.60;;;;;;;14.35;68.29;99345.94;5055247;28;42148;-88
2024/02/14 12:00:48;;;;;;;1.30;1.20;;;;;;;14.30;68.65;99346.28;5055510;28;42491;-89
2024/02/14 12:03:18;;;;;;;1.53;1.23;;;;;;;14.34;69.05;99368.25;5055301;28;38546;-89
2024/02/14 12:05:48;;;;;;;2.03;1.20;;;;;;;14.08;69.26;99332.75;5055355;28;41727;-89
2024/02/14 12:08:19;;;;;;;2.40;1.30;;;;;;;14.08;69.73;99337.22;5055100;28;42907;-90
2024/02/14 12:10:49;;;;;;;1.40;1.07;;;;;;;14.19;70.04;99348.84;5055170;28;42704;-89
2024/02/14 12:13:18;;;;;;;3.03;1.50;;;;;;;14.14;70.62;99339.44;5053885;28;39392;-90
2024/02/14 12:15:47;;;;;;;2.07;1.27;;;;;;;14.11;70.83;99323.69;5054146;28;40796;-88
2024/02/14 12:18:15;;;;;;;2.53;1.30;;;;;;;14.09;71.18;99314.97;5053450;28;41913;-89
2024/02/14 12:20:44;;;;;;;3.87;1.23;;;;;;;14.12;71.97;99341.34;5054270;28;41382;-89
2024/02/14 12:23:17;;;;;;;1.77;1.57;;;;;;;14.04;72.56;99336.56;5054003;28;38953;-87
2024/02/14 12:25:46;;;;;;;2.40;1.50;;;;;;;14.06;73.70;99341.81;5070854;28;43432;-88
2024/02/14 12:28:16;;;;;;;3.03;1.53;;;;;;;13.91;73.74;99320.59;5053546;28;42846;-88
2024/02/14 12:30:46;;;;;;;2.90;1.33;;;;;;;13.84;73.90;99284.72;5053837;28;41453;-88
2024/02/14 12:33:14;;;;;;;2.17;1.30;;;;;;;13.89;73.81;99282.56;5053409;28;39918;-87
2024/02/14 12:35:48;;;;;;;1.67;1.40;;;;;;;14.30;74.48;99346.28;5053781;28;41966;-88
2024/02/14 12:38:18;;;;;;;1.87;1.20;;;;;;;14.22;74.29;99331.75;5070365;28;41975;-89
2024/02/14 12:40:47;;;;;;;3.27;1.43;;;;;;;14.24;73.76;99338.69;5054147;28;41189;-87
2024/02/14 12:43:16;;;;;;;1.97;1.60;;;;;;;14.33;73.85;99337.22;5054356;28;39474;-88
2024/02/14 12:45:44;;;;;;;1.87;1.50;;;;;;;14.26;74.26;99317.28;5055023;28;41044;-88
2024/02/14 12:48:15;;;;;;;2.43;2.07;;;;;;;14.62;73.85;99352.03;5054228;28;43074;-87
2024/02/14 12:50:49;;;;;;;2.80;1.47;;;;;;;14.48;73.01;99314.84;5054666;28;41975;-88
2024/02/14 12:53:19;;;;;;;2.33;1.40;;;;;;;14.49;73.40;99335.19;5037816;28;40265;-88
2024/02/14 12:55:47;;;;;;;2.03;1.50;;;;;;;14.47;72.85;99358.44;5055649;28;41768;-87
2024/02/14 12:58:16;;;;;;;2.13;1.47;;;;;;;14.11;73.07;99318.34;5054232;28;43391;-88
2024/02/14 13:00:44;;;;;;;1.57;1.37;;;;;;;14.10;73.21;99337.94;5054404;28;42528;-86
2024/02/14 13:03:12;;;;;;;2.63;1.47;;;;;;;14.01;72.89;99334.97;5054365;28;41057;-88
2024/02/14 13:05:40;;;;;;;1.53;1.40;;;;;;;14.01;73.18;99350.94;5054672;28;42208;-88
2024/02/14 13:08:09;;;;;;;2.10;1.67;;;;;;;14.01;73.54;99340.28;5054141;28;42053;-88
2024/02/14 13:10:38;;;;;;;2.03;1.83;;;;;;;13.82;73.08;99313.25;5054569;28;41433;-87
2024/02/14 13:13:06;;;;;;;1.40;1.30;;;;;;;13.99;73.28;99336.88;5052505;28;39815;-88
2024/02/14 13:15:37;;;;;;;3.33;1.80;;;;;;;13.74;73.71;99318.22;5053330;28;41247;-89
2024/02/14 13:18:08;;;;;;;2.00;1.50;;;;;;;13.51;74.11;99290.50;5053306;28;41878;-88
2024/02/14 13:20:35;;;;;;;2.20;1.70;;;;;;;13.66;73.96;99334.72;5053123;28;41624;-88
2024/02/14 13:23:03;;;;;;;2.20;1.50;;;;;;;13.41;74.40;99291.22;5053158;28;39214;-88
2024/02/14 13:25:31;;;;;;;3.03;1.70;;;;;;;13.39;74.44;99288.66;5053298;28;41981;-86
2024/02/14 13:28:00;;;;;;;2.97;1.80;;;;;;;13.37;74.39;99295.91;5052962;28;42793;-88
2024/02/14 13:30:29;;;;;;;4.03;1.90;;;;;;;13.49;74.77;99310.19;5053413;28;41876;-88
2024/02/14 13:32:57;;;;;;;2.00;1.60;;;;;;;13.50;75.07;99307.44;5037004;28;39058;-89
2024/02/14 13:35:25;;;;;;;1.67;1.57;;;;;;;13.28;74.87;99257.47;5069681;28;40976;-87
2024/02/14 13:37:59;;;;;;;3.20;1.90;;;;;;;13.57;74.50;99294.56;5069781;28;43060;-87
2024/02/14 13:40:27;;;;;;;3.30;1.97;;;;;;;13.82;74.59;99291.09;5053165;28;41317;-88
2024/02/14 13:42:57;;;;;;;2.17;1.53;;;;;;;14.08;73.85;99286.63;5053665;28;39018;-88
2024/02/14 13:45:42;;;;;;;2.13;1.60;;;;;;;14.47;72.56;99306.94;5054099;28;42266;-89
2024/02/14 13:48:22;;;;;;;3.33;1.83;;;;;;;14.46;71.80;99282.13;5053978;28;41769;-88
2024/02/14 13:50:51;;;;;;;1.90;1.60;;;;;;;14.77;71.67;99312.75;5053831;28;41594;-89
2024/02/14 13:53:19;;;;;;;2.27;1.80;;;;;;;14.85;70.51;99301.53;5054006;28;39683;-88
2024/02/14 13:55:47;;;;;;;2.17;1.57;;;;;;;14.93;69.64;99320.50;5054033;28;40754;-88
2024/02/14 13:58:16;;;;;;;1.53;1.43;;;;;;;14.68;69.56;99295.63;5053425;28;41578;-88
2024/02/14 14:00:46;;;;;;;1.80;1.70;;;;;;;14.60;69.95;99283.78;5052131;28;41628;-88
2024/02/14 14:03:13;;;;;;;1.73;1.30;;;;;;;14.53;69.74;99296.72;5052587;28;39200;-87
2024/02/14 14:05:44;;;;;;;2.10;1.77;;;;;;;14.57;69.74;99316.00;5053634;28;41493;-86
2024/02/14 14:08:28;;;;;;;2.13;1.53;;;;;;;14.03;70.00;99271.81;5055743;28;42196;-88
2024/02/14 14:11:00;;;;;;;1.73;1.40;;;;;;;13.93;70.64;99265.44;5054264;28;41789;-88
2024/02/14 14:13:30;;;;;;;1.40;1.30;;;;;;;14.23;71.02;99331.66;5056175;28;39091;-88
2024/02/14 14:16:00;;;;;;;1.40;1.30;;;;;;;14.14;71.35;99328.78;5056087;28;41058;-89
2024/02/14 14:18:27;;;;;;;4.00;1.77;;;;;;;13.99;71.20;99315.56;5055264;28;41934;-89
2024/02/14 14:20:55;;;;;;;1.27;1.17;;;;;;;13.83;71.58;99312.28;5056243;28;41579;-88
2024/02/14 14:23:25;;;;;;;2.43;1.20;;;;;;;13.40;72.27;99246.97;5072656;28;40204;-88
2024/02/14 14:25:53;;;;;;;2.07;1.33;;;;;;;13.67;72.63;99303.63;5056195;28;40675;-87
2024/02/14 14:28:25;;;;;;;1.67;1.40;;;;;;;13.63;72.84;99315.44;5055507;28;43699;-88
2024/02/14 14:30:56;;;;;;;2.47;1.50;;;;;;;13.37;73.26;99289.72;5056176;28;41073;-88
2024/02/14 14:33:26;;;;;;;2.00;1.50;;;;;;;13.53;73.50;99325.00;5055347;28;39022;-88
2024/02/14 14:35:56;;;;;;;1.63;1.17;;;;;;;13.32;74.07;99302.50;5056011;28;41853;-88
2024/02/14 14:38:26;;;;;;;2.47;1.60;;;;;;;13.37;74.29;99311.84;5072289;28;44010;-88
2024/02/14 14:41:01;;;;;;;2.20;1.40;;;;;;;13.38;74.11;99312.72;5055585;28;41326;-88
2024/02/14 14:43:29;;;;;;;2.00;1.40;;;;;;;13.25;74.50;99292.25;5056635;28;39015;-87
2024/02/14 14:45:57;;;;;;;2.70;1.30;;;;;;;13.26;75.03;99287.78;5056780;28;40588;-88
2024/02/14 14:48:27;;;;;;;2.73;1.80;;;;;;;13.01;74.92;99248.63;5056856;28;42040;-87
2024/02/14 14:50:57;;;;;;;3.57;1.40;;;;;;;13.19;75.43;99287.34;5056327;28;41275;-88
2024/02/14 14:56:55;;;;;;;1.37;1.27;;;;;;;13.40;75.47;99316.13;5056739;28;42438;-87
2024/02/14 14:59:23;;;;;;;1.50;1.20;;;;;;;13.32;75.93;99299.84;5058067;28;43179;-88
2024/02/14 15:01:53;;;;;;;2.20;1.30;;;;;;;13.19;75.92;99292.66;5056401;28;44168;-88
2024/02/14 15:04:24;;;;;;;1.87;1.40;;;;;;;13.28;75.95;99304.50;5056164;28;39482;-85
2024/02/14 15:06:52;;;;;;;1.80;1.40;;;;;;;13.17;76.19;99286.59;5056292;28;40682;-87
2024/02/14 15:09:20;;;;;;;2.13;1.30;;;;;;;13.22;76.72;99286.31;5056350;28;43328;-88
2024/02/14 15:11:47;;;;;;;1.83;1.30;;;;;;;13.20;77.04;99298.84;5055045;28;41583;-88
2024/02/14 15:14:19;;;;;;;1.87;1.40;;;;;;;13.25;77.17;99308.22;5071198;28;39266;-88
2024/02/14 15:16:46;;;;;;;1.47;1.37;;;;;;;13.14;77.47;99294.78;5055370;28;41669;-88
2024/02/14 15:19:15;;;;;;;2.93;1.50;;;;;;;13.20;77.81;99315.66;5053697;28;41916;-87
2024/02/14 15:21:44;;;;;;;2.00;1.60;;;;;;;13.09;77.91;99301.31;5038692;28;41754;-87
2024/02/14 15:24:12;;;;;;;2.20;1.47;;;;;;;13.09;78.37;99302.19;5054549;28;38695;-90
2024/02/14 15:26:49;;;;;;;3.00;1.80;;;;;;;13.14;78.20;99310.72;5055235;28;40794;-87
2024/02/14 15:34:48;;;;;;;2.50;1.67;;;;;;;13.03;78.87;99297.25;5054369;28;40552;-87
2024/02/14 15:37:18;;;;;;;1.63;1.53;;;;;;;13.16;78.95;99318.59;5054230;28;41738;-87
2024/02/14 15:39:47;;;;;;;1.53;1.20;;;;;;;13.05;79.05;99298.00;5070081;28;42521;-87
2024/02/14 15:42:15;;;;;;;2.83;1.60;;;;;;;13.14;79.42;99308.06;5054300;28;42336;-88
2024/02/14 15:44:42;;;;;;;1.73;1.57;;;;;;;13.04;79.08;99298.09;5039329;28;40323;-87
2024/02/14 15:47:10;;;;;;;2.00;1.50;;;;;;;13.01;79.76;99299.16;5055521;28;43915;-87
2024/02/14 15:49:38;;;;;;;2.97;1.40;;;;;;;13.10;79.91;99308.34;5055433;28;41909;-89
2024/02/14 15:52:12;;;;;;;1.87;1.50;;;;;;;13.09;80.18;99310.16;5055121;28;41225;-88
2024/02/14 15:54:54;;;;;;;3.53;1.60;;;;;;;12.90;80.19;99280.41;5055666;28;42011;-88
2024/02/14 15:57:50;;;;;;;1.67;1.57;;;;;;;13.08;80.89;99300.47;5055329;28;40960;-88
2024/02/14 16:00:29;;;;;;;1.77;1.57;;;;;;;12.75;80.96;99249.50;5055128;28;43362;-88
2024/02/14 16:02:58;;;;;;;1.63;1.53;;;;;;;12.94;80.98;99296.06;5055425;28;41000;-87
2024/02/14 16:05:25;;;;;;;2.73;1.57;;;;;;;12.50;81.22;99218.34;5055044;28;40883;-89
2024/02/14 16:07:59;;;;;;;1.50;1.37;;;;;;;12.69;81.82;99257.88;5055095;28;41108;-87
2024/02/14 16:10:29;;;;;;;2.03;1.50;;;;;;;12.87;82.16;99291.22;5055428;28;42666;-86
2024/02/14 16:13:57;;;;;;;1.97;1.87;;;;;;;12.94;82.38;99297.88;5052756;28;40909;-87
2024/02/14 16:16:53;;;;;;;3.93;1.70;;;;;;;12.68;83.14;99264.13;5054178;28;40202;-88
2024/02/14 16:19:44;;;;;;;1.60;1.37;;;;;;;12.80;83.06;99279.28;5045885;28;42493;-88
2024/02/14 16:22:18;;;;;;;1.67;1.57;;;;;;;12.77;82.92;99284.78;5053215;28;41955;-87
2024/02/14 16:24:48;;;;;;;1.63;1.30;;;;;;;12.78;83.46;99286.50;5071207;28;43133;-88
2024/02/14 16:27:23;;;;;;;4.10;1.50;;;;;;;12.69;83.76;99271.16;5054073;28;38831;-89
2024/02/14 16:30:08;;;;;;;1.50;1.30;;;;;;;12.82;84.43;99293.34;5053916;28;40872;-87
2024/02/14 16:32:36;;;;;;;1.43;1.33;;;;;;;12.70;84.25;99283.50;5054298;28;42194;-88
2024/02/14 16:35:07;;;;;;;3.17;1.60;;;;;;;12.69;84.83;99279.13;5054099;28;42516;-88
2024/02/14 16:37:34;;;;;;;3.13;1.50;;;;;;;12.79;84.74;99294.38;5054144;28;40273;-88
2024/02/14 16:40:07;;;;;;;2.60;1.60;;;;;;;12.74;85.12;99290.31;5071218;28;42071;-87
2024/02/14 16:42:36;;;;;;;1.73;1.27;;;;;;;12.72;84.84;99284.25;5054137;28;41830;-87
2024/02/14 16:45:06;;;;;;;1.30;1.20;;;;;;;12.70;84.88;99278.19;5055212;28;43320;-87
2024/02/14 16:47:37;;;;;;;1.93;1.30;;;;;;;12.68;84.92;99270.31;5054786;28;39036;-87
2024/02/14 16:50:07;;;;;;;1.70;1.60;;;;;;;12.73;85.24;99289.47;5055937;28;43266;-87
2024/02/14 16:52:35;;;;;;;2.00;1.50;;;;;;;12.54;86.37;99287.13;5055207;28;42513;-88
2024/02/14 16:55:03;;;;;;;2.97;1.90;;;;;;;12.53;87.59;99288.06;5054816;28;40852;-86
2024/02/14 16:57:31;;;;;;;4.07;1.80;;;;;;;12.24;88.52;99260.69;5054762;28;38907;-91
